This is the latest recevied weather packets stored in our database for station/object NE8U. If no packets are shown the sender has not sent any weather packets the latest 10 day(s).
| Time | Temp. | Humidity | Pressure | Rain* | Wind** | Luminosity | Snow |
|---|---|---|---|---|---|---|---|
| 1777948099 | 16.11° C | 70% | 1015.7 hPa | 0 mm | - | 0 W/m² | - |
| 1777947795 | 15° C | 77% | 1016 hPa | 0 mm | - | 0 W/m² | - |
| 1777947493 | 15° C | 77% | 1015.7 hPa | 0 mm | - | 0 W/m² | - |
| 1777947189 | 15° C | 81% | 1016.2 hPa | 0 mm | - | 0 W/m² | - |
| 1777946885 | 15° C | 78% | 1015.9 hPa | 1.78 mm | - | 0 W/m² | - |
| 1777946581 | 15° C | 79% | 1015.9 hPa | 1.78 mm | - | 0 W/m² | - |
| 1777946278 | 15° C | 81% | 1016.2 hPa | 0 mm | - | 0 W/m² | - |
| 1777945975 | 15.56° C | 77% | 1016.3 hPa | 1.27 mm | - | 0 W/m² | - |
| 1777945672 | 16.11° C | 74% | 1016.3 hPa | 3.05 mm | - | 0 W/m² | - |
| 1777945369 | 17.22° C | 66% | 1016.2 hPa | 1.78 mm | - | 1 W/m² | - |
| 1777945066 | 18.33° C | 53% | 1016.2 hPa | 0 mm | - | 3 W/m² | - |
| 1777944763 | 18.89° C | 49% | 1016 hPa | 0 mm | - | 2 W/m² | - |
| 1777944461 | 18.89° C | 44% | 1016.2 hPa | 0 mm | - | 3 W/m² | - |
| 1777944158 | 18.89° C | 44% | 1015.8 hPa | 0 mm | - | 4 W/m² | - |
| 1777943853 | 18.89° C | 45% | 1015.7 hPa | 0 mm | - | 3 W/m² | - |
| 1777943551 | 18.89° C | 47% | 1015.7 hPa | 0 mm | - | 7 W/m² | - |
| 1777943246 | 19.44° C | 46% | 1015.4 hPa | 0 mm | - | 10 W/m² | - |
| 1777942943 | 19.44° C | 44% | 1015.4 hPa | 0 mm | - | 12 W/m² | - |
| 1777942640 | 19.44° C | 43% | 1015.5 hPa | 0 mm | - | 11 W/m² | - |
| 1777942337 | 19.44° C | 44% | 1015.5 hPa | 0 mm | - | 14 W/m² | - |
| 1777942034 | 20° C | 44% | 1015.6 hPa | 0 mm | - | 23 W/m² | - |
| 1777941730 | 20° C | 42% | 1015.6 hPa | 0 mm | - | 27 W/m² | - |
| 1777941428 | 20° C | 41% | 1015.6 hPa | 0 mm | - | 26 W/m² | - |
| 1777941126 | 20.56° C | 41% | 1015.6 hPa | 0 mm | - | 28 W/m² | - |
| 1777940821 | 20.56° C | 40% | 1015.6 hPa | 0 mm | - | 38 W/m² | - |
* Rain latest hour (hover to see other rain measurements)
** Current wind speed in m/s (hover to see current wind gust speed)